sensor_id;sensor_type;location;lat;lon;timestamp;temperature;humidity
38606;DHT22;24365;48.446;8.850;2024-02-16T00:00:39;7.30;85.10
38606;DHT22;24365;48.446;8.850;2024-02-16T00:05:40;7.30;85.60
38606;DHT22;24365;48.446;8.850;2024-02-16T00:10:41;7.30;85.10
38606;DHT22;24365;48.446;8.850;2024-02-16T00:15:43;7.30;85.10
38606;DHT22;24365;48.446;8.850;2024-02-16T00:20:44;7.30;85.10
38606;DHT22;24365;48.446;8.850;2024-02-16T00:25:46;7.30;84.50
38606;DHT22;24365;48.446;8.850;2024-02-16T00:30:48;7.10;85.20
38606;DHT22;24365;48.446;8.850;2024-02-16T00:35:49;7.00;86.40
38606;DHT22;24365;48.446;8.850;2024-02-16T00:40:50;7.00;86.80
38606;DHT22;24365;48.446;8.850;2024-02-16T00:45:51;7.00;86.80
38606;DHT22;24365;48.446;8.850;2024-02-16T00:50:52;7.00;86.60
38606;DHT22;24365;48.446;8.850;2024-02-16T00:55:53;7.00;87.70
38606;DHT22;24365;48.446;8.850;2024-02-16T01:00:53;7.00;86.70
38606;DHT22;24365;48.446;8.850;2024-02-16T01:05:55;7.10;86.80
38606;DHT22;24365;48.446;8.850;2024-02-16T01:10:55;7.10;86.30
38606;DHT22;24365;48.446;8.850;2024-02-16T01:15:57;7.10;86.70
38606;DHT22;24365;48.446;8.850;2024-02-16T01:20:58;7.10;87.70
38606;DHT22;24365;48.446;8.850;2024-02-16T01:25:59;7.10;88.10
38606;DHT22;24365;48.446;8.850;2024-02-16T01:31:00;7.20;87.60
38606;DHT22;24365;48.446;8.850;2024-02-16T01:36:01;7.20;87.60
38606;DHT22;24365;48.446;8.850;2024-02-16T01:41:01;7.20;87.20
38606;DHT22;24365;48.446;8.850;2024-02-16T01:46:02;7.10;87.90
38606;DHT22;24365;48.446;8.850;2024-02-16T01:51:03;7.00;89.10
38606;DHT22;24365;48.446;8.850;2024-02-16T01:56:05;7.10;88.90
38606;DHT22;24365;48.446;8.850;2024-02-16T02:01:06;7.00;88.70
38606;DHT22;24365;48.446;8.850;2024-02-16T02:06:07;7.00;88.60
38606;DHT22;24365;48.446;8.850;2024-02-16T02:11:08;7.00;88.50
38606;DHT22;24365;48.446;8.850;2024-02-16T02:16:09;7.00;88.40
38606;DHT22;24365;48.446;8.850;2024-02-16T02:21:10;7.00;88.50
38606;DHT22;24365;48.446;8.850;2024-02-16T02:26:13;7.00;88.50
38606;DHT22;24365;48.446;8.850;2024-02-16T02:31:20;7.00;88.10
38606;DHT22;24365;48.446;8.850;2024-02-16T02:36:21;7.00;88.20
38606;DHT22;24365;48.446;8.850;2024-02-16T02:41:23;7.00;87.90
38606;DHT22;24365;48.446;8.850;2024-02-16T02:46:23;7.00;88.50
38606;DHT22;24365;48.446;8.850;2024-02-16T02:51:24;6.90;88.50
38606;DHT22;24365;48.446;8.850;2024-02-16T02:56:25;6.90;88.50
38606;DHT22;24365;48.446;8.850;2024-02-16T03:01:26;6.90;88.10
38606;DHT22;24365;48.446;8.850;2024-02-16T03:06:27;6.90;88.30
38606;DHT22;24365;48.446;8.850;2024-02-16T03:11:28;6.90;88.00
38606;DHT22;24365;48.446;8.850;2024-02-16T03:16:28;6.80;87.80
38606;DHT22;24365;48.446;8.850;2024-02-16T03:21:29;6.80;87.60
38606;DHT22;24365;48.446;8.850;2024-02-16T03:26:30;6.80;87.40
38606;DHT22;24365;48.446;8.850;2024-02-16T03:31:32;6.80;87.20
38606;DHT22;24365;48.446;8.850;2024-02-16T03:36:34;6.80;87.20
38606;DHT22;24365;48.446;8.850;2024-02-16T03:41:35;6.70;87.10
38606;DHT22;24365;48.446;8.850;2024-02-16T03:46:36;6.70;87.00
38606;DHT22;24365;48.446;8.850;2024-02-16T03:51:38;6.60;86.70
38606;DHT22;24365;48.446;8.850;2024-02-16T03:56:39;6.70;87.00
38606;DHT22;24365;48.446;8.850;2024-02-16T04:01:40;6.60;86.50
38606;DHT22;24365;48.446;8.850;2024-02-16T04:06:42;6.60;86.70
38606;DHT22;24365;48.446;8.850;2024-02-16T04:11:44;6.60;86.70
38606;DHT22;24365;48.446;8.850;2024-02-16T04:16:45;6.60;86.50
38606;DHT22;24365;48.446;8.850;2024-02-16T04:21:46;6.60;86.60
38606;DHT22;24365;48.446;8.850;2024-02-16T04:26:47;6.60;86.80
38606;DHT22;24365;48.446;8.850;2024-02-16T04:31:48;6.50;86.80
38606;DHT22;24365;48.446;8.850;2024-02-16T04:36:48;6.50;86.80
38606;DHT22;24365;48.446;8.850;2024-02-16T04:41:49;6.50;86.80
38606;DHT22;24365;48.446;8.850;2024-02-16T04:46:52;6.50;87.10
38606;DHT22;24365;48.446;8.850;2024-02-16T04:51:53;6.50;87.00
38606;DHT22;24365;48.446;8.850;2024-02-16T04:56:54;6.50;87.10
38606;DHT22;24365;48.446;8.850;2024-02-16T05:01:54;6.40;87.10
38606;DHT22;24365;48.446;8.850;2024-02-16T05:06:56;6.40;87.10
38606;DHT22;24365;48.446;8.850;2024-02-16T05:11:57;6.40;87.20
38606;DHT22;24365;48.446;8.850;2024-02-16T05:16:58;6.40;87.20
38606;DHT22;24365;48.446;8.850;2024-02-16T05:22:00;6.40;86.90
38606;DHT22;24365;48.446;8.850;2024-02-16T05:27:01;6.40;87.00
38606;DHT22;24365;48.446;8.850;2024-02-16T05:32:01;6.40;86.70
38606;DHT22;24365;48.446;8.850;2024-02-16T05:37:03;6.40;87.10
38606;DHT22;24365;48.446;8.850;2024-02-16T05:42:04;6.40;87.00
38606;DHT22;24365;48.446;8.850;2024-02-16T05:47:05;6.40;86.70
38606;DHT22;24365;48.446;8.850;2024-02-16T05:52:06;6.30;86.70
38606;DHT22;24365;48.446;8.850;2024-02-16T05:57:18;6.30;87.00
38606;DHT22;24365;48.446;8.850;2024-02-16T06:02:19;6.30;87.10
38606;DHT22;24365;48.446;8.850;2024-02-16T06:07:20;6.20;87.10
38606;DHT22;24365;48.446;8.850;2024-02-16T06:12:21;6.20;87.20
38606;DHT22;24365;48.446;8.850;2024-02-16T06:17:22;6.20;87.50
38606;DHT22;24365;48.446;8.850;2024-02-16T06:22:23;6.20;87.20
38606;DHT22;24365;48.446;8.850;2024-02-16T06:27:24;6.20;88.30
38606;DHT22;24365;48.446;8.850;2024-02-16T06:32:25;6.20;87.40
38606;DHT22;24365;48.446;8.850;2024-02-16T06:37:26;6.10;87.40
38606;DHT22;24365;48.446;8.850;2024-02-16T06:42:27;6.10;87.10
38606;DHT22;24365;48.446;8.850;2024-02-16T06:47:28;6.00;88.30
38606;DHT22;24365;48.446;8.850;2024-02-16T06:52:30;6.00;88.20
38606;DHT22;24365;48.446;8.850;2024-02-16T06:57:30;6.00;88.80
38606;DHT22;24365;48.446;8.850;2024-02-16T07:02:32;6.00;88.60
38606;DHT22;24365;48.446;8.850;2024-02-16T07:07:33;6.00;88.70
38606;DHT22;24365;48.446;8.850;2024-02-16T07:12:36;6.00;88.90
38606;DHT22;24365;48.446;8.850;2024-02-16T07:17:37;6.10;89.70
38606;DHT22;24365;48.446;8.850;2024-02-16T07:22:38;6.10;89.90
38606;DHT22;24365;48.446;8.850;2024-02-16T07:27:39;6.10;90.10
38606;DHT22;24365;48.446;8.850;2024-02-16T07:32:42;6.20;90.50
38606;DHT22;24365;48.446;8.850;2024-02-16T07:37:44;6.30;90.40
38606;DHT22;24365;48.446;8.850;2024-02-16T07:42:45;6.40;90.30
38606;DHT22;24365;48.446;8.850;2024-02-16T07:47:46;6.50;90.40
38606;DHT22;24365;48.446;8.850;2024-02-16T07:52:47;6.60;90.10
38606;DHT22;24365;48.446;8.850;2024-02-16T07:57:48;6.60;90.50
38606;DHT22;24365;48.446;8.850;2024-02-16T08:02:49;6.80;90.70
38606;DHT22;24365;48.446;8.850;2024-02-16T08:07:50;6.80;91.00
38606;DHT22;24365;48.446;8.850;2024-02-16T08:12:51;6.90;90.00
38606;DHT22;24365;48.446;8.850;2024-02-16T08:17:53;7.00;89.70
38606;DHT22;24365;48.446;8.850;2024-02-16T08:22:54;7.10;89.70
38606;DHT22;24365;48.446;8.850;2024-02-16T08:27:55;7.10;89.40
38606;DHT22;24365;48.446;8.850;2024-02-16T08:32:56;7.20;89.10
38606;DHT22;24365;48.446;8.850;2024-02-16T08:37:58;7.30;89.20
38606;DHT22;24365;48.446;8.850;2024-02-16T08:43:00;7.50;89.10
38606;DHT22;24365;48.446;8.850;2024-02-16T08:48:03;7.70;88.80
38606;DHT22;24365;48.446;8.850;2024-02-16T08:53:04;7.90;87.40
38606;DHT22;24365;48.446;8.850;2024-02-16T08:58:08;8.20;87.10
38606;DHT22;24365;48.446;8.850;2024-02-16T09:03:09;8.50;86.10
38606;DHT22;24365;48.446;8.850;2024-02-16T09:08:10;8.80;84.30
38606;DHT22;24365;48.446;8.850;2024-02-16T09:13:12;9.20;81.20
38606;DHT22;24365;48.446;8.850;2024-02-16T09:18:13;9.50;80.90
38606;DHT22;24365;48.446;8.850;2024-02-16T09:23:14;9.70;80.30
38606;DHT22;24365;48.446;8.850;2024-02-16T09:28:15;9.90;80.30
38606;DHT22;24365;48.446;8.850;2024-02-16T09:33:16;10.20;78.70
38606;DHT22;24365;48.446;8.850;2024-02-16T09:38:17;10.40;78.80
38606;DHT22;24365;48.446;8.850;2024-02-16T09:43:36;10.60;78.30
38606;DHT22;24365;48.446;8.850;2024-02-16T09:48:40;11.00;75.40
38606;DHT22;24365;48.446;8.850;2024-02-16T09:53:42;11.40;73.30
38606;DHT22;24365;48.446;8.850;2024-02-16T09:58:43;11.80;68.00
38606;DHT22;24365;48.446;8.850;2024-02-16T10:03:44;12.00;66.30
38606;DHT22;24365;48.446;8.850;2024-02-16T10:13:54;12.50;67.10
38606;DHT22;24365;48.446;8.850;2024-02-16T10:19:04;12.70;64.60
38606;DHT22;24365;48.446;8.850;2024-02-16T10:24:06;13.00;61.80
38606;DHT22;24365;48.446;8.850;2024-02-16T10:29:10;13.20;60.70
38606;DHT22;24365;48.446;8.850;2024-02-16T10:34:15;13.40;58.70
38606;DHT22;24365;48.446;8.850;2024-02-16T10:39:17;13.70;51.50
38606;DHT22;24365;48.446;8.850;2024-02-16T10:44:19;14.00;52.30
38606;DHT22;24365;48.446;8.850;2024-02-16T10:49:20;14.20;48.40
38606;DHT22;24365;48.446;8.850;2024-02-16T10:54:22;14.30;46.90
38606;DHT22;24365;48.446;8.850;2024-02-16T10:59:23;14.60;46.70
38606;DHT22;24365;48.446;8.850;2024-02-16T11:04:25;14.80;45.10
38606;DHT22;24365;48.446;8.850;2024-02-16T11:09:36;15.10;44.70
38606;DHT22;24365;48.446;8.850;2024-02-16T11:14:42;15.20;42.20
38606;DHT22;24365;48.446;8.850;2024-02-16T11:19:44;15.20;43.30
38606;DHT22;24365;48.446;8.850;2024-02-16T11:24:46;15.10;44.10
38606;DHT22;24365;48.446;8.850;2024-02-16T11:29:47;15.10;42.60
38606;DHT22;24365;48.446;8.850;2024-02-16T11:34:48;15.00;43.40
38606;DHT22;24365;48.446;8.850;2024-02-16T11:39:54;15.10;43.30
38606;DHT22;24365;48.446;8.850;2024-02-16T11:44:57;15.20;43.60
38606;DHT22;24365;48.446;8.850;2024-02-16T11:55:09;15.80;43.20
38606;DHT22;24365;48.446;8.850;2024-02-16T12:00:10;16.10;41.80
38606;DHT22;24365;48.446;8.850;2024-02-16T12:05:15;16.30;40.30
38606;DHT22;24365;48.446;8.850;2024-02-16T12:10:16;16.40;41.20
38606;DHT22;24365;48.446;8.850;2024-02-16T12:15:18;16.30;41.50
38606;DHT22;24365;48.446;8.850;2024-02-16T12:20:20;16.30;41.40
38606;DHT22;24365;48.446;8.850;2024-02-16T12:25:21;16.30;41.60
38606;DHT22;24365;48.446;8.850;2024-02-16T12:30:24;16.30;41.80
38606;DHT22;24365;48.446;8.850;2024-02-16T12:35:25;16.40;42.80
38606;DHT22;24365;48.446;8.850;2024-02-16T12:40:26;16.40;42.80
38606;DHT22;24365;48.446;8.850;2024-02-16T12:45:30;16.50;42.30
38606;DHT22;24365;48.446;8.850;2024-02-16T12:50:32;16.50;43.20
38606;DHT22;24365;48.446;8.850;2024-02-16T12:55:33;16.60;42.90
38606;DHT22;24365;48.446;8.850;2024-02-16T13:00:34;16.60;43.40
38606;DHT22;24365;48.446;8.850;2024-02-16T13:05:36;16.70;43.40
38606;DHT22;24365;48.446;8.850;2024-02-16T13:10:37;16.70;43.20
38606;DHT22;24365;48.446;8.850;2024-02-16T13:15:38;16.70;43.30
38606;DHT22;24365;48.446;8.850;2024-02-16T13:20:39;16.70;42.60
38606;DHT22;24365;48.446;8.850;2024-02-16T13:25:41;16.80;42.80
38606;DHT22;24365;48.446;8.850;2024-02-16T13:30:42;16.80;42.70
38606;DHT22;24365;48.446;8.850;2024-02-16T13:35:42;16.70;42.50
38606;DHT22;24365;48.446;8.850;2024-02-16T13:40:45;16.60;42.60
38606;DHT22;24365;48.446;8.850;2024-02-16T13:45:50;16.50;42.90
38606;DHT22;24365;48.446;8.850;2024-02-16T13:50:51;16.50;43.20
38606;DHT22;24365;48.446;8.850;2024-02-16T13:55:52;16.40;43.60
38606;DHT22;24365;48.446;8.850;2024-02-16T14:00:53;16.50;44.40
38606;DHT22;24365;48.446;8.850;2024-02-16T14:05:54;16.40;43.20
38606;DHT22;24365;48.446;8.850;2024-02-16T14:10:55;16.40;43.80
38606;DHT22;24365;48.446;8.850;2024-02-16T14:15:57;16.30;43.60
38606;DHT22;24365;48.446;8.850;2024-02-16T14:20:58;16.30;44.80
38606;DHT22;24365;48.446;8.850;2024-02-16T14:25:59;16.30;44.20
38606;DHT22;24365;48.446;8.850;2024-02-16T14:31:00;16.30;43.60
38606;DHT22;24365;48.446;8.850;2024-02-16T14:36:04;16.30;44.10
38606;DHT22;24365;48.446;8.850;2024-02-16T14:41:05;16.20;44.30
38606;DHT22;24365;48.446;8.850;2024-02-16T14:46:07;16.20;44.70
38606;DHT22;24365;48.446;8.850;2024-02-16T14:51:09;16.10;44.30
38606;DHT22;24365;48.446;8.850;2024-02-16T14:56:10;16.10;45.00
38606;DHT22;24365;48.446;8.850;2024-02-16T15:01:11;16.10;45.00
38606;DHT22;24365;48.446;8.850;2024-02-16T15:06:12;16.00;46.00
38606;DHT22;24365;48.446;8.850;2024-02-16T15:11:13;15.90;45.70
38606;DHT22;24365;48.446;8.850;2024-02-16T15:16:14;15.80;45.80
38606;DHT22;24365;48.446;8.850;2024-02-16T15:21:15;15.80;46.40
38606;DHT22;24365;48.446;8.850;2024-02-16T15:26:17;15.80;46.50
38606;DHT22;24365;48.446;8.850;2024-02-16T15:31:18;15.70;46.90
38606;DHT22;24365;48.446;8.850;2024-02-16T15:36:19;15.70;46.90
38606;DHT22;24365;48.446;8.850;2024-02-16T15:41:20;15.60;47.50
38606;DHT22;24365;48.446;8.850;2024-02-16T15:46:21;15.50;47.60
38606;DHT22;24365;48.446;8.850;2024-02-16T15:51:22;15.40;48.10
38606;DHT22;24365;48.446;8.850;2024-02-16T15:56:23;15.30;48.30
38606;DHT22;24365;48.446;8.850;2024-02-16T16:01:27;15.10;48.50
38606;DHT22;24365;48.446;8.850;2024-02-16T16:06:28;15.10;49.10
38606;DHT22;24365;48.446;8.850;2024-02-16T16:11:29;15.00;49.30
38606;DHT22;24365;48.446;8.850;2024-02-16T16:16:31;14.90;50.10
38606;DHT22;24365;48.446;8.850;2024-02-16T16:21:32;14.80;50.20
38606;DHT22;24365;48.446;8.850;2024-02-16T16:26:33;14.70;50.20
38606;DHT22;24365;48.446;8.850;2024-02-16T16:31:33;14.60;50.10
38606;DHT22;24365;48.446;8.850;2024-02-16T16:36:36;14.50;51.00
38606;DHT22;24365;48.446;8.850;2024-02-16T16:41:36;14.40;51.20
38606;DHT22;24365;48.446;8.850;2024-02-16T16:46:38;14.20;52.20
38606;DHT22;24365;48.446;8.850;2024-02-16T16:51:39;14.30;53.10
38606;DHT22;24365;48.446;8.850;2024-02-16T16:56:41;14.30;52.90
38606;DHT22;24365;48.446;8.850;2024-02-16T17:01:42;14.20;53.30
38606;DHT22;24365;48.446;8.850;2024-02-16T17:06:42;14.00;53.80
38606;DHT22;24365;48.446;8.850;2024-02-16T17:11:43;14.10;54.20
38606;DHT22;24365;48.446;8.850;2024-02-16T17:16:44;14.00;54.40
38606;DHT22;24365;48.446;8.850;2024-02-16T17:21:48;13.90;55.00
38606;DHT22;24365;48.446;8.850;2024-02-16T17:26:48;13.80;55.90
38606;DHT22;24365;48.446;8.850;2024-02-16T17:31:49;13.90;56.50
38606;DHT22;24365;48.446;8.850;2024-02-16T17:36:50;13.80;56.40
38606;DHT22;24365;48.446;8.850;2024-02-16T17:41:51;13.70;56.70
38606;DHT22;24365;48.446;8.850;2024-02-16T17:46:52;13.60;57.60
38606;DHT22;24365;48.446;8.850;2024-02-16T17:51:53;13.50;58.40
38606;DHT22;24365;48.446;8.850;2024-02-16T17:56:54;13.50;59.90
38606;DHT22;24365;48.446;8.850;2024-02-16T18:01:54;13.40;61.70
38606;DHT22;24365;48.446;8.850;2024-02-16T18:06:55;13.30;63.20
38606;DHT22;24365;48.446;8.850;2024-02-16T18:11:56;13.30;63.50
38606;DHT22;24365;48.446;8.850;2024-02-16T18:16:57;13.20;64.60
38606;DHT22;24365;48.446;8.850;2024-02-16T18:22:00;13.10;66.20
38606;DHT22;24365;48.446;8.850;2024-02-16T18:27:01;13.10;68.00
38606;DHT22;24365;48.446;8.850;2024-02-16T18:32:02;13.20;68.20
38606;DHT22;24365;48.446;8.850;2024-02-16T18:37:03;13.20;67.70
38606;DHT22;24365;48.446;8.850;2024-02-16T18:42:05;13.10;68.10
38606;DHT22;24365;48.446;8.850;2024-02-16T18:47:06;12.90;68.70
38606;DHT22;24365;48.446;8.850;2024-02-16T18:52:06;12.80;70.10
38606;DHT22;24365;48.446;8.850;2024-02-16T18:57:07;12.80;70.50
38606;DHT22;24365;48.446;8.850;2024-02-16T19:02:09;12.70;71.40
38606;DHT22;24365;48.446;8.850;2024-02-16T19:07:10;12.70;71.40
38606;DHT22;24365;48.446;8.850;2024-02-16T19:12:11;12.70;71.80
38606;DHT22;24365;48.446;8.850;2024-02-16T19:17:11;12.60;72.20
38606;DHT22;24365;48.446;8.850;2024-02-16T19:22:12;12.60;72.30
38606;DHT22;24365;48.446;8.850;2024-02-16T19:27:13;12.50;73.00
38606;DHT22;24365;48.446;8.850;2024-02-16T19:32:15;12.50;73.20
38606;DHT22;24365;48.446;8.850;2024-02-16T19:37:15;12.50;73.30
38606;DHT22;24365;48.446;8.850;2024-02-16T19:42:16;12.50;73.80
38606;DHT22;24365;48.446;8.850;2024-02-16T19:47:17;12.40;73.70
38606;DHT22;24365;48.446;8.850;2024-02-16T19:52:18;12.40;74.50
38606;DHT22;24365;48.446;8.850;2024-02-16T19:57:23;12.50;74.10
38606;DHT22;24365;48.446;8.850;2024-02-16T20:02:24;12.40;73.70
38606;DHT22;24365;48.446;8.850;2024-02-16T20:07:25;12.30;74.40
38606;DHT22;24365;48.446;8.850;2024-02-16T20:12:28;12.30;75.00
38606;DHT22;24365;48.446;8.850;2024-02-16T20:17:29;12.30;74.80
38606;DHT22;24365;48.446;8.850;2024-02-16T20:22:33;12.20;75.10
38606;DHT22;24365;48.446;8.850;2024-02-16T20:27:34;12.20;75.40
38606;DHT22;24365;48.446;8.850;2024-02-16T20:32:35;12.10;75.90
38606;DHT22;24365;48.446;8.850;2024-02-16T20:37:36;12.10;76.00
38606;DHT22;24365;48.446;8.850;2024-02-16T20:42:37;12.10;76.70
38606;DHT22;24365;48.446;8.850;2024-02-16T20:47:38;12.00;77.20
38606;DHT22;24365;48.446;8.850;2024-02-16T20:52:39;11.90;77.00
38606;DHT22;24365;48.446;8.850;2024-02-16T20:57:41;11.90;77.80
38606;DHT22;24365;48.446;8.850;2024-02-16T21:02:41;11.80;78.00
38606;DHT22;24365;48.446;8.850;2024-02-16T21:07:42;11.80;78.20
38606;DHT22;24365;48.446;8.850;2024-02-16T21:12:43;11.70;79.00
38606;DHT22;24365;48.446;8.850;2024-02-16T21:17:44;11.70;79.60
38606;DHT22;24365;48.446;8.850;2024-02-16T21:22:45;11.80;78.90
38606;DHT22;24365;48.446;8.850;2024-02-16T21:27:46;11.70;79.80
38606;DHT22;24365;48.446;8.850;2024-02-16T21:32:47;11.70;79.00
38606;DHT22;24365;48.446;8.850;2024-02-16T21:37:50;11.80;79.10
38606;DHT22;24365;48.446;8.850;2024-02-16T21:42:52;11.80;80.30
38606;DHT22;24365;48.446;8.850;2024-02-16T21:47:53;11.70;79.80
38606;DHT22;24365;48.446;8.850;2024-02-16T21:52:54;11.60;81.20
38606;DHT22;24365;48.446;8.850;2024-02-16T21:57:55;11.60;80.40
38606;DHT22;24365;48.446;8.850;2024-02-16T22:02:56;11.60;80.40
38606;DHT22;24365;48.446;8.850;2024-02-16T22:07:58;11.60;80.80
38606;DHT22;24365;48.446;8.850;2024-02-16T22:12:58;11.50;80.90
38606;DHT22;24365;48.446;8.850;2024-02-16T22:17:59;11.50;81.40
38606;DHT22;24365;48.446;8.850;2024-02-16T22:23:01;11.50;81.80
38606;DHT22;24365;48.446;8.850;2024-02-16T22:28:05;11.50;82.50
38606;DHT22;24365;48.446;8.850;2024-02-16T22:33:06;11.50;82.40
38606;DHT22;24365;48.446;8.850;2024-02-16T22:38:07;11.40;82.40
38606;DHT22;24365;48.446;8.850;2024-02-16T22:43:08;11.40;82.80
38606;DHT22;24365;48.446;8.850;2024-02-16T22:48:09;11.40;83.30
38606;DHT22;24365;48.446;8.850;2024-02-16T22:53:12;11.30;83.30
38606;DHT22;24365;48.446;8.850;2024-02-16T22:58:13;11.30;83.60
38606;DHT22;24365;48.446;8.850;2024-02-16T23:03:14;11.30;83.90
38606;DHT22;24365;48.446;8.850;2024-02-16T23:08:16;11.30;83.80
38606;DHT22;24365;48.446;8.850;2024-02-16T23:13:18;11.30;83.80
38606;DHT22;24365;48.446;8.850;2024-02-16T23:18:19;11.20;84.20
38606;DHT22;24365;48.446;8.850;2024-02-16T23:23:20;11.20;84.10
38606;DHT22;24365;48.446;8.850;2024-02-16T23:28:21;11.20;84.90
38606;DHT22;24365;48.446;8.850;2024-02-16T23:33:23;11.10;85.80
38606;DHT22;24365;48.446;8.850;2024-02-16T23:38:23;11.10;85.60
38606;DHT22;24365;48.446;8.850;2024-02-16T23:43:24;11.10;86.10
38606;DHT22;24365;48.446;8.850;2024-02-16T23:48:25;11.10;85.80
38606;DHT22;24365;48.446;8.850;2024-02-16T23:53:26;11.10;87.60
38606;DHT22;24365;48.446;8.850;2024-02-16T23:58:28;11.00;87.50
